Time;durP1;ratioP1;P1;durP2;ratioP2;P2;SDS_P1;SDS_P2;PMS_P1;PMS_P2;Temp;Humidity;BMP_temperature;BMP_pressure;BME280_temperature;BME280_humidity;BME280_pressure;Samples;Min_cycle;Max_cycle;Signal;HPM_P1;HPM_P2
2022/07/26 04:02:21;;;;;;;9.83;8.60;;;17.70;96.30;;;;;;5160076;23;20496;-81
2022/07/26 04:04:46;;;;;;;8.80;7.83;;;17.70;96.30;;;;;;4976936;28;20458;-81
2022/07/26 04:07:12;;;;;;;20.87;8.77;;;17.80;96.30;;;;;;4991178;28;20181;-80
2022/07/26 04:09:37;;;;;;;12.97;8.80;;;17.80;96.30;;;;;;4994643;28;20197;-81
2022/07/26 04:12:03;;;;;;;10.10;8.57;;;17.80;96.30;;;;;;4994254;28;20193;-81
2022/07/26 04:14:28;;;;;;;9.17;8.17;;;17.80;96.30;;;;;;4994784;28;20702;-76
2022/07/26 04:16:54;;;;;;;10.83;8.40;;;17.80;96.30;;;;;;4995131;28;20637;-75
2022/07/26 04:19:19;;;;;;;10.70;8.80;;;17.80;96.30;;;;;;4980494;28;20194;-75
2022/07/26 04:26:55;;;;;;;9.37;8.40;;;17.90;96.30;;;;;;5779838;23;20853;-72
2022/07/26 04:29:21;;;;;;;11.47;8.30;;;17.90;96.30;;;;;;4972406;28;20465;-72
2022/07/26 04:34:22;;;;;;;10.73;7.73;;;18.00;96.30;;;;;;5966944;23;20498;-71
2022/07/26 04:36:47;;;;;;;12.03;8.13;;;18.00;96.30;;;;;;5005958;28;20444;-72
2022/07/26 04:39:13;;;;;;;10.97;8.57;;;18.10;96.30;;;;;;5009366;28;20189;-72
2022/07/26 04:44:13;;;;;;;11.40;8.37;;;18.10;96.30;;;;;;5243657;23;20229;-70
2022/07/26 04:46:39;;;;;;;15.13;7.97;;;18.10;96.30;;;;;;4969471;28;20933;-70
2022/07/26 04:49:04;;;;;;;10.77;7.57;;;18.20;96.30;;;;;;4971322;28;20213;-70
2022/07/26 04:54:05;;;;;;;9.37;8.47;;;18.10;96.30;;;;;;5504513;23;20303;-70
2022/07/26 04:56:31;;;;;;;16.80;8.50;;;18.20;96.30;;;;;;4992327;28;20405;-71
2022/07/26 04:58:56;;;;;;;12.80;7.93;;;18.20;96.30;;;;;;4994537;28;20548;-71
2022/07/26 05:03:57;;;;;;;9.93;8.30;;;18.30;96.30;;;;;;5188729;23;20237;-70
2022/07/26 05:06:22;;;;;;;8.40;7.43;;;18.30;96.30;;;;;;4995245;28;20975;-70
2022/07/26 05:08:48;;;;;;;10.83;6.90;;;18.20;96.30;;;;;;4994463;28;20190;-72
2022/07/26 05:13:49;;;;;;;11.30;7.37;;;18.30;96.30;;;;;;5711602;23;20236;-72
2022/07/26 05:16:14;;;;;;;15.23;6.10;;;18.30;96.30;;;;;;4991012;28;20432;-73
2022/07/26 05:18:40;;;;;;;10.00;6.23;;;18.30;96.30;;;;;;4991984;28;20205;-73
2022/07/26 05:21:05;;;;;;;8.43;5.47;;;18.30;96.30;;;;;;5001101;28;20820;-72
2022/07/26 05:23:31;;;;;;;9.70;5.97;;;18.40;96.30;;;;;;5014405;28;20633;-72
2022/07/26 05:25:56;;;;;;;6.53;5.93;;;18.40;96.30;;;;;;5010262;28;20181;-72
2022/07/26 05:28:22;;;;;;;8.00;6.33;;;18.40;96.30;;;;;;4998099;28;20184;-71
2022/07/26 05:30:47;;;;;;;10.93;6.33;;;18.40;96.30;;;;;;4994518;28;20708;-71
2022/07/26 05:33:13;;;;;;;8.90;5.90;;;18.50;96.30;;;;;;4994743;28;20185;-72
2022/07/26 05:35:39;;;;;;;8.30;5.87;;;18.50;96.30;;;;;;4990373;28;20185;-72
2022/07/26 05:38:04;;;;;;;12.27;6.20;;;18.60;96.30;;;;;;4990345;28;20267;-70
2022/07/26 05:40:30;;;;;;;7.20;6.50;;;18.80;96.30;;;;;;4993894;28;20181;-70
2022/07/26 05:42:56;;;;;;;16.27;6.90;;;18.90;96.30;;;;;;4994284;28;20185;-70
2022/07/26 05:45:21;;;;;;;10.37;6.90;;;19.00;96.30;;;;;;4990982;28;20178;-72
2022/07/26 05:47:51;;;;;;;12.57;7.27;;;19.10;96.30;;;;;;4988087;28;20193;-70
2022/07/26 05:50:16;;;;;;;8.50;5.33;;;19.20;96.30;;;;;;4974844;28;20216;-72
2022/07/26 05:52:42;;;;;;;11.10;6.00;;;19.30;96.30;;;;;;4974973;28;20529;-71
2022/07/26 05:55:08;;;;;;;7.90;4.97;;;19.30;96.30;;;;;;4977504;28;20240;-72
2022/07/26 05:57:34;;;;;;;7.23;5.40;;;19.30;96.30;;;;;;4994180;28;20177;-72
2022/07/26 05:59:59;;;;;;;6.50;4.90;;;19.40;96.30;;;;;;4994419;28;20475;-72
2022/07/26 06:02:25;;;;;;;6.27;3.70;;;19.50;96.30;;;;;;4994274;28;20202;-72
2022/07/26 06:04:50;;;;;;;7.73;4.43;;;19.60;96.30;;;;;;4994220;28;20704;-72
2022/07/26 06:07:16;;;;;;;10.83;4.00;;;19.60;96.30;;;;;;4994017;28;20252;-72
2022/07/26 06:09:41;;;;;;;5.93;4.13;;;19.70;96.30;;;;;;4993065;28;20193;-71
2022/07/26 06:12:07;;;;;;;5.63;3.60;;;19.90;96.30;;;;;;4993815;28;20229;-71
2022/07/26 06:14:33;;;;;;;5.50;3.70;;;20.00;96.30;;;;;;4993891;28;20189;-71
2022/07/26 06:16:58;;;;;;;8.33;3.60;;;20.20;96.30;;;;;;4993869;28;20536;-72
2022/07/26 06:19:24;;;;;;;5.23;3.70;;;20.30;96.30;;;;;;4993585;28;20699;-71
2022/07/26 06:21:49;;;;;;;7.23;3.37;;;20.50;96.30;;;;;;4993571;28;20277;-71
2022/07/26 06:24:15;;;;;;;15.57;3.33;;;20.60;96.30;;;;;;4993645;28;20264;-72
2022/07/26 06:26:40;;;;;;;8.30;3.23;;;20.60;96.30;;;;;;4993605;28;20177;-71
2022/07/26 06:29:06;;;;;;;7.17;3.23;;;20.50;96.30;;;;;;4993359;28;20213;-71
2022/07/26 06:31:32;;;;;;;6.20;2.80;;;20.50;96.30;;;;;;4993453;28;20193;-71
2022/07/26 06:33:58;;;;;;;5.90;3.17;;;20.50;96.30;;;;;;4993408;28;20644;-71
2022/07/26 06:36:23;;;;;;;18.33;3.50;;;20.60;96.30;;;;;;4993446;28;20420;-72
2022/07/26 06:38:49;;;;;;;10.80;2.97;;;20.60;96.30;;;;;;4993165;28;20210;-70
2022/07/26 06:41:14;;;;;;;5.77;2.00;;;20.80;96.30;;;;;;5005862;28;20195;-71
2022/07/26 06:43:40;;;;;;;7.97;2.63;;;21.00;96.30;;;;;;5013209;28;20243;-71
2022/07/26 06:46:05;;;;;;;19.50;2.90;;;21.40;96.30;;;;;;5012911;28;20177;-71
2022/07/26 06:48:31;;;;;;;11.20;2.70;;;21.80;96.30;;;;;;5012640;28;20173;-71
2022/07/26 06:50:56;;;;;;;6.20;2.87;;;22.00;96.30;;;;;;5012625;28;20212;-72
2022/07/26 06:53:21;;;;;;;4.90;2.60;;;22.40;96.30;;;;;;5012782;28;20244;-72
2022/07/26 06:55:47;;;;;;;6.50;2.80;;;23.10;96.30;;;;;;5012815;28;20622;-72
2022/07/26 06:58:12;;;;;;;5.10;2.70;;;23.80;96.30;;;;;;5012475;28;20172;-72
2022/07/26 07:00:38;;;;;;;8.03;2.80;;;24.00;96.30;;;;;;5012436;28;20540;-74
2022/07/26 07:03:03;;;;;;;5.20;2.47;;;24.50;96.30;;;;;;5012801;28;20241;-71
2022/07/26 07:05:29;;;;;;;9.40;2.37;;;24.60;96.30;;;;;;5012458;28;20628;-70
2022/07/26 07:07:55;;;;;;;6.30;2.43;;;24.90;96.30;;;;;;5012281;28;20255;-69
2022/07/26 07:10:20;;;;;;;3.73;2.20;;;25.50;96.30;;;;;;5012357;28;20647;-71
2022/07/26 07:12:45;;;;;;;6.70;2.53;;;26.20;94.90;;;;;;5012370;28;20238;-71
2022/07/26 07:15:11;;;;;;;6.60;2.33;;;26.30;92.40;;;;;;5012351;28;20187;-71
2022/07/26 07:17:37;;;;;;;4.50;2.10;;;26.30;91.10;;;;;;5012419;28;20168;-71
2022/07/26 07:20:04;;;;;;;4.27;1.90;;;26.10;90.60;;;;;;5011646;28;20184;-72
2022/07/26 07:22:29;;;;;;;7.40;2.00;;;26.20;90.60;;;;;;5012298;28;20197;-71
2022/07/26 07:24:55;;;;;;;10.57;2.47;;;26.40;90.10;;;;;;5012243;28;20470;-72
2022/07/26 07:27:20;;;;;;;6.47;1.80;;;26.80;87.00;;;;;;5012420;28;20177;-71
2022/07/26 07:29:46;;;;;;;6.90;1.90;;;26.50;87.10;;;;;;5012152;28;20558;-71
2022/07/26 07:32:11;;;;;;;8.00;1.87;;;27.00;86.50;;;;;;5012400;28;20203;-71
2022/07/26 07:34:37;;;;;;;7.63;1.83;;;26.90;85.60;;;;;;5012373;28;20175;-72
2022/07/26 07:37:03;;;;;;;17.23;2.57;;;27.20;86.50;;;;;;5012347;28;20733;-71
2022/07/26 07:39:29;;;;;;;4.20;2.17;;;27.70;84.10;;;;;;5012131;28;20179;-71
2022/07/26 07:41:55;;;;;;;3.47;1.37;;;28.50;83.20;;;;;;4992834;28;20444;-71
2022/07/26 07:44:20;;;;;;;2.90;1.67;;;27.90;84.10;;;;;;4992641;28;20176;-71
2022/07/26 07:46:46;;;;;;;7.53;2.10;;;27.90;83.90;;;;;;4991331;28;20184;-71
2022/07/26 07:49:11;;;;;;;8.20;1.50;;;27.50;81.40;;;;;;4992657;28;20203;-71
2022/07/26 07:51:37;;;;;;;6.10;2.03;;;26.80;81.80;;;;;;4992645;28;20236;-71
2022/07/26 07:54:03;;;;;;;4.63;1.67;;;25.70;84.20;;;;;;4992539;28;20184;-71
2022/07/26 07:56:29;;;;;;;4.70;2.00;;;24.70;87.20;;;;;;4992558;28;20203;-71
2022/07/26 07:58:54;;;;;;;5.67;1.30;;;23.70;89.90;;;;;;4992287;28;20448;-71
2022/07/26 08:01:20;;;;;;;4.10;1.90;;;23.10;92.60;;;;;;4992546;28;20193;-71
2022/07/26 08:03:45;;;;;;;4.10;1.60;;;23.70;94.30;;;;;;4992440;28;20177;-71
2022/07/26 08:06:11;;;;;;;11.53;1.63;;;25.40;91.30;;;;;;4992560;28;20177;-71
2022/07/26 08:08:37;;;;;;;11.93;1.80;;;26.20;84.20;;;;;;4992327;28;20177;-81
2022/07/26 08:11:04;;;;;;;7.90;1.70;;;26.30;86.30;;;;;;4994852;28;20288;-80
2022/07/26 08:13:29;;;;;;;8.07;1.17;;;26.50;84.50;;;;;;4988781;28;20431;-80
2022/07/26 08:15:55;;;;;;;5.33;1.60;;;26.30;85.20;;;;;;4991777;28;20570;-80
2022/07/26 08:18:22;;;;;;;6.83;1.60;;;25.40;85.90;;;;;;4993952;28;20223;-80
2022/07/26 08:20:48;;;;;;;3.77;1.40;;;24.40;87.20;;;;;;4997556;28;20288;-80
2022/07/26 08:23:13;;;;;;;8.00;1.67;;;24.00;90.70;;;;;;4992848;28;20411;-80
2022/07/26 08:25:39;;;;;;;3.93;1.40;;;24.50;90.80;;;;;;4992877;28;20405;-79
2022/07/26 08:28:04;;;;;;;8.73;1.43;;;24.90;88.80;;;;;;4991251;28;20186;-79
2022/07/26 08:30:31;;;;;;;2.93;1.27;;;25.20;88.90;;;;;;4992837;28;20209;-79
2022/07/26 08:32:56;;;;;;;4.37;1.60;;;25.40;86.80;;;;;;4994885;28;20173;-80
2022/07/26 08:35:22;;;;;;;9.00;1.80;;;26.30;85.40;;;;;;4997138;28;20419;-76
2022/07/26 08:37:48;;;;;;;3.90;1.30;;;26.50;83.80;;;;;;5000742;28;20314;-77
2022/07/26 08:40:14;;;;;;;4.50;1.30;;;25.60;84.60;;;;;;4998606;28;20200;-77
2022/07/26 08:42:39;;;;;;;3.40;1.47;;;25.20;86.90;;;;;;4999641;28;20440;-76
2022/07/26 08:45:05;;;;;;;3.00;1.53;;;25.80;84.40;;;;;;4999947;28;20181;-76
2022/07/26 08:47:31;;;;;;;3.10;1.40;;;25.30;84.20;;;;;;4999317;28;20205;-78
2022/07/26 08:49:57;;;;;;;3.93;1.50;;;25.30;86.30;;;;;;4998615;28;20463;-78
2022/07/26 08:52:22;;;;;;;3.57;1.33;;;26.80;84.60;;;;;;4996773;28;21020;-77
2022/07/26 08:54:50;;;;;;;6.97;1.70;;;27.40;81.30;;;;;;4997839;28;20177;-79
2022/07/26 08:57:16;;;;;;;6.47;1.40;;;27.30;79.40;;;;;;4998178;28;20181;-78
2022/07/26 08:59:42;;;;;;;3.87;1.80;;;26.30;80.40;;;;;;4996838;28;20424;-77
2022/07/26 09:02:10;;;;;;;6.20;1.63;;;25.40;83.50;;;;;;4996619;28;20471;-77
2022/07/26 09:04:38;;;;;;;9.37;1.70;;;24.70;83.80;;;;;;4997115;28;20633;-77
2022/07/26 09:07:09;;;;;;;9.37;2.00;;;24.90;86.80;;;;;;4996984;28;20415;-77
2022/07/26 09:09:57;;;;;;;3.30;1.20;;;25.40;85.70;;;;;;4997988;28;20463;-78
2022/07/26 09:12:23;;;;;;;4.40;1.63;;;26.20;84.90;;;;;;4996938;28;20444;-77
2022/07/26 09:14:49;;;;;;;3.40;1.30;;;26.70;81.30;;;;;;4995849;28;20428;-77
2022/07/26 09:17:17;;;;;;;4.53;1.13;;;26.50;82.70;;;;;;4994987;28;20424;-78
2022/07/26 09:19:43;;;;;;;2.77;0.90;;;26.40;77.20;;;;;;4996450;28;20318;-79
2022/07/26 09:22:12;;;;;;;2.17;1.20;;;25.40;77.60;;;;;;4995028;28;20440;-78
2022/07/26 09:24:45;;;;;;;3.50;1.10;;;24.90;80.70;;;;;;4994592;28;20991;-78
2022/07/26 09:27:14;;;;;;;5.40;1.57;;;25.10;79.70;;;;;;4995000;28;20943;-79
2022/07/26 09:29:49;;;;;;;8.73;1.13;;;24.90;79.20;;;;;;4995748;28;20821;-80
2022/07/26 09:32:23;;;;;;;6.63;1.20;;;24.60;79.70;;;;;;4994018;28;20439;-77
2022/07/26 09:35:15;;;;;;;2.70;1.27;;;26.00;79.30;;;;;;4995202;28;20927;-77
2022/07/26 09:37:42;;;;;;;1.37;1.00;;;26.70;79.10;;;;;;4990326;28;20424;-77
2022/07/26 09:40:11;;;;;;;5.80;1.50;;;27.80;73.90;;;;;;4999953;28;21001;-77
2022/07/26 09:42:37;;;;;;;2.93;1.20;;;28.30;72.90;;;;;;5013708;28;20486;-77
2022/07/26 09:45:15;;;;;;;4.53;1.40;;;28.90;71.70;;;;;;5016142;28;20532;-77
2022/07/26 09:47:40;;;;;;;1.20;0.80;;;27.90;72.90;;;;;;5015097;28;20970;-77
2022/07/26 09:50:12;;;;;;;2.07;1.20;;;28.00;71.90;;;;;;5016241;28;20458;-78
2022/07/26 09:52:38;;;;;;;4.00;1.70;;;27.00;73.70;;;;;;5015753;28;20202;-79
2022/07/26 09:55:06;;;;;;;4.13;1.20;;;26.50;77.60;;;;;;5015054;28;20407;-77
2022/07/26 09:57:34;;;;;;;5.20;1.10;;;27.30;77.20;;;;;;5014594;28;20179;-77
2022/07/26 10:00:03;;;;;;;4.50;1.20;;;26.50;74.20;;;;;;5014847;28;20981;-77
2022/07/26 10:02:29;;;;;;;5.47;1.23;;;25.80;76.30;;;;;;5017982;28;20789;-80
2022/07/26 10:04:55;;;;;;;2.47;1.33;;;25.40;76.70;;;;;;5017422;28;20435;-80
2022/07/26 10:07:21;;;;;;;4.80;1.23;;;24.80;77.90;;;;;;5018598;28;20772;-80
2022/07/26 10:10:01;;;;;;;2.40;1.13;;;24.90;77.40;;;;;;5009859;28;20655;-80
2022/07/26 10:12:31;;;;;;;6.50;1.30;;;25.70;75.60;;;;;;5019958;28;20191;-80
2022/07/26 10:14:57;;;;;;;2.83;1.23;;;26.30;75.70;;;;;;5018722;28;20431;-80
2022/07/26 10:17:28;;;;;;;2.40;1.13;;;26.40;76.20;;;;;;5017064;28;20415;-80
2022/07/26 10:20:00;;;;;;;2.83;1.10;;;25.90;74.50;;;;;;5009120;28;20181;-79
2022/07/26 10:22:33;;;;;;;10.53;1.83;;;25.70;76.50;;;;;;4994491;28;20830;-76
2022/07/26 10:25:17;;;;;;;4.00;1.60;;;25.30;76.00;;;;;;4993865;28;20452;-75
2022/07/26 10:27:45;;;;;;;1.57;1.10;;;24.80;77.00;;;;;;4993756;28;20417;-75
2022/07/26 10:30:22;;;;;;;1.33;0.90;;;25.60;77.30;;;;;;4993740;28;21021;-75
2022/07/26 10:32:51;;;;;;;1.33;0.80;;;26.80;75.50;;;;;;4993763;28;20443;-75
2022/07/26 10:35:43;;;;;;;2.50;0.93;;;27.80;71.10;;;;;;4993106;28;20515;-75
2022/07/26 10:38:20;;;;;;;3.33;1.00;;;27.20;71.30;;;;;;4993168;28;20750;-76
2022/07/26 10:40:59;;;;;;;1.83;1.00;;;26.70;71.30;;;;;;4989891;28;20463;-80
2022/07/26 10:43:26;;;;;;;3.97;1.00;;;27.10;71.80;;;;;;4981229;28;20436;-79
2022/07/26 10:46:15;;;;;;;1.27;0.70;;;26.70;71.70;;;;;;4981142;28;20431;-80
2022/07/26 10:49:02;;;;;;;1.63;1.00;;;26.50;71.50;;;;;;4981599;28;20437;-80
2022/07/26 10:51:36;;;;;;;2.60;0.90;;;26.30;72.50;;;;;;4991320;28;20783;-79
2022/07/26 10:54:11;;;;;;;2.80;1.17;;;25.90;71.90;;;;;;4991348;28;20943;-79
2022/07/26 10:56:37;;;;;;;2.83;1.00;;;26.50;73.10;;;;;;4989495;28;20528;-79
2022/07/26 10:59:04;;;;;;;1.53;0.90;;;27.50;71.50;;;;;;4993163;28;20927;-79
2022/07/26 11:01:41;;;;;;;2.80;0.80;;;28.40;72.10;;;;;;4992022;28;20205;-79
2022/07/26 11:04:20;;;;;;;3.77;1.60;;;28.80;70.80;;;;;;4995010;28;21079;-79
2022/07/26 11:06:46;;;;;;;2.47;1.00;;;28.80;71.80;;;;;;4993082;28;20915;-81
2022/07/26 11:09:12;;;;;;;2.50;0.90;;;28.90;72.60;;;;;;4993179;28;20463;-80
2022/07/26 11:11:38;;;;;;;2.17;1.10;;;28.60;71.40;;;;;;4987264;28;20275;-80
2022/07/26 11:14:13;;;;;;;3.87;1.37;;;28.40;69.60;;;;;;4987476;28;20454;-80
2022/07/26 11:16:44;;;;;;;4.60;1.17;;;28.10;70.70;;;;;;4985296;28;20428;-80
2022/07/26 11:19:24;;;;;;;5.67;1.20;;;28.50;70.10;;;;;;4990275;28;20442;-80
2022/07/26 11:21:59;;;;;;;6.73;1.20;;;28.90;71.30;;;;;;4986200;28;20892;-79
2022/07/26 11:24:25;;;;;;;1.73;0.97;;;29.10;67.20;;;;;;4989262;28;20423;-80
2022/07/26 11:26:51;;;;;;;1.97;1.00;;;29.00;67.20;;;;;;4989752;28;20575;-78
2022/07/26 11:29:29;;;;;;;4.93;1.00;;;29.40;67.50;;;;;;4989537;28;20503;-78
2022/07/26 11:31:54;;;;;;;5.50;0.80;;;30.00;64.80;;;;;;4990187;28;20629;-78
2022/07/26 11:34:22;;;;;;;2.37;1.10;;;29.60;64.70;;;;;;4991595;28;20459;-78
2022/07/26 11:36:50;;;;;;;1.97;0.83;;;28.00;65.20;;;;;;4990557;28;20191;-78
2022/07/26 11:39:25;;;;;;;2.67;1.10;;;27.60;68.20;;;;;;4989891;28;20431;-78
2022/07/26 11:42:05;;;;;;;2.37;0.90;;;26.80;70.20;;;;;;4981171;28;20537;-80
2022/07/26 11:44:32;;;;;;;2.33;1.10;;;25.90;72.80;;;;;;4988456;28;20428;-78
2022/07/26 11:46:58;;;;;;;3.73;1.00;;;25.70;73.40;;;;;;4990959;28;20431;-79
2022/07/26 11:49:28;;;;;;;2.77;1.00;;;27.00;71.80;;;;;;4989579;28;20477;-79
2022/07/26 11:51:59;;;;;;;2.60;0.97;;;28.10;68.40;;;;;;4991786;28;20656;-78
2022/07/26 11:54:30;;;;;;;3.73;0.93;;;28.30;67.30;;;;;;4991212;28;20526;-78
2022/07/26 11:57:01;;;;;;;1.73;0.90;;;28.40;66.40;;;;;;4991043;28;20458;-79
2022/07/26 11:59:29;;;;;;;2.60;0.80;;;28.70;66.40;;;;;;4988990;28;20936;-78
2022/07/26 12:01:56;;;;;;;2.33;0.90;;;28.30;66.70;;;;;;4992416;28;20519;-77
2022/07/26 12:04:24;;;;;;;5.30;1.10;;;27.80;67.40;;;;;;4990166;28;20437;-78
2022/07/26 12:06:51;;;;;;;5.30;1.10;;;26.60;68.80;;;;;;4993109;28;20482;-78
2022/07/26 12:09:37;;;;;;;7.60;1.00;;;25.70;71.90;;;;;;4992790;28;20467;-77
2022/07/26 12:12:26;;;;;;;4.40;0.83;;;25.40;72.80;;;;;;4991965;28;20519;-78
2022/07/26 12:15:03;;;;;;;5.33;1.03;;;25.30;73.70;;;;;;4992948;28;20447;-77
2022/07/26 12:17:30;;;;;;;3.77;0.93;;;25.60;73.30;;;;;;4993400;28;20958;-78
2022/07/26 12:20:08;;;;;;;8.33;1.20;;;25.70;72.40;;;;;;4992082;28;20773;-76
2022/07/26 12:22:34;;;;;;;2.77;1.03;;;26.70;71.60;;;;;;4990688;28;20439;-79
2022/07/26 12:25:00;;;;;;;2.53;1.13;;;27.60;70.30;;;;;;4991497;28;20412;-80
2022/07/26 12:27:31;;;;;;;1.63;0.90;;;27.60;69.40;;;;;;4991732;28;20196;-77
2022/07/26 12:30:02;;;;;;;4.10;0.80;;;27.40;66.30;;;;;;4990239;28;20521;-79
2022/07/26 12:32:36;;;;;;;3.10;1.27;;;27.30;68.40;;;;;;4992949;28;21337;-77
2022/07/26 12:35:15;;;;;;;1.70;0.83;;;27.80;68.90;;;;;;4985873;28;20428;-78
2022/07/26 12:37:47;;;;;;;2.60;0.80;;;28.70;64.40;;;;;;4982681;28;20459;-78
2022/07/26 12:40:14;;;;;;;2.70;1.20;;;29.40;64.70;;;;;;4990067;28;20428;-78
2022/07/26 12:43:00;;;;;;;3.20;0.70;;;29.30;64.70;;;;;;4991297;28;20494;-78
2022/07/26 12:45:28;;;;;;;2.40;0.70;;;30.00;64.00;;;;;;4995115;28;20431;-78
2022/07/26 12:47:55;;;;;;;4.83;0.80;;;29.60;61.90;;;;;;5009605;28;20438;-77
2022/07/26 12:50:25;;;;;;;1.33;0.80;;;28.50;62.90;;;;;;5019324;28;20447;-79
2022/07/26 12:52:51;;;;;;;4.90;0.80;;;28.30;64.50;;;;;;5001410;28;20428;-79
2022/07/26 12:55:18;;;;;;;1.47;0.97;;;29.00;65.70;;;;;;5007719;28;20506;-77
2022/07/26 12:57:47;;;;;;;2.43;0.73;;;28.60;63.30;;;;;;5001876;28;20415;-80
2022/07/26 13:00:15;;;;;;;1.30;0.70;;;27.90;64.90;;;;;;4994851;28;20448;-80
2022/07/26 13:02:42;;;;;;;5.63;0.90;;;27.40;65.80;;;;;;4995267;28;20478;-77
2022/07/26 13:05:08;;;;;;;1.50;0.80;;;26.90;66.70;;;;;;4988644;28;21031;-77
2022/07/26 13:07:34;;;;;;;2.60;1.03;;;26.60;67.90;;;;;;5001165;28;20515;-76
2022/07/26 13:10:00;;;;;;;2.23;0.93;;;27.10;68.00;;;;;;4994492;28;21034;-77
2022/07/26 13:12:26;;;;;;;3.10;1.00;;;28.60;64.50;;;;;;4992056;28;21707;-80
2022/07/26 13:14:51;;;;;;;3.17;0.90;;;29.40;63.50;;;;;;4991108;28;20594;-82
2022/07/26 13:17:17;;;;;;;3.23;1.00;;;29.50;64.50;;;;;;5011610;28;20663;-82
2022/07/26 13:19:42;;;;;;;1.00;0.70;;;28.10;65.20;;;;;;4990622;28;20166;-81
2022/07/26 13:22:08;;;;;;;2.17;0.90;;;26.90;68.00;;;;;;4982116;28;20271;-81
2022/07/26 13:24:35;;;;;;;1.63;0.90;;;26.10;70.10;;;;;;4990737;28;20177;-82
2022/07/26 13:27:02;;;;;;;3.43;0.90;;;26.00;70.50;;;;;;4993431;28;20251;-82
2022/07/26 13:29:28;;;;;;;4.90;1.10;;;26.10;69.60;;;;;;4991631;28;20466;-81
2022/07/26 13:31:54;;;;;;;5.27;0.90;;;26.40;69.50;;;;;;4992654;28;20483;-80
2022/07/26 13:34:21;;;;;;;26.67;1.63;;;26.90;68.70;;;;;;4994082;28;20177;-79
2022/07/26 13:36:48;;;;;;;6.20;1.00;;;26.70;69.50;;;;;;4994526;28;20423;-80
2022/07/26 13:39:13;;;;;;;2.83;1.00;;;27.70;69.10;;;;;;4996126;28;20914;-80
2022/07/26 13:41:39;;;;;;;3.13;1.10;;;28.60;66.90;;;;;;5013421;28;20447;-81
2022/07/26 13:44:04;;;;;;;2.90;0.90;;;27.70;66.30;;;;;;5015087;28;20200;-80
2022/07/26 13:46:30;;;;;;;2.90;1.00;;;27.70;67.80;;;;;;5016795;28;20643;-80
2022/07/26 13:48:56;;;;;;;2.00;1.00;;;28.20;66.50;;;;;;5021728;28;20173;-77
2022/07/26 13:51:22;;;;;;;2.50;0.93;;;28.20;67.40;;;;;;5019911;28;20201;-77
2022/07/26 13:53:48;;;;;;;1.87;0.90;;;28.80;67.50;;;;;;5028188;28;20423;-77
2022/07/26 13:56:13;;;;;;;3.80;1.40;;;28.90;67.00;;;;;;5032454;28;20180;-80
2022/07/26 13:58:39;;;;;;;3.53;1.40;;;28.50;67.40;;;;;;5019492;28;20196;-80
2022/07/26 14:01:04;;;;;;;5.17;1.10;;;27.70;69.40;;;;;;5016405;28;20215;-76
2022/07/26 14:03:31;;;;;;;8.10;0.97;;;27.60;69.30;;;;;;4998522;28;20649;-76
2022/07/26 14:05:56;;;;;;;8.10;1.20;;;27.50;69.60;;;;;;4975033;28;20177;-76
2022/07/26 14:08:22;;;;;;;7.30;0.80;;;27.20;71.50;;;;;;4977680;28;20476;-78
2022/07/26 14:10:47;;;;;;;4.00;1.20;;;27.10;71.70;;;;;;4998689;28;20205;-75
2022/07/26 14:13:13;;;;;;;5.70;1.00;;;26.90;71.80;;;;;;4994455;28;20181;-75
2022/07/26 14:15:38;;;;;;;3.30;1.03;;;26.90;69.70;;;;;;4993971;28;20208;-75
2022/07/26 14:18:04;;;;;;;2.83;1.17;;;26.50;69.90;;;;;;4988134;28;20192;-74
2022/07/26 14:20:29;;;;;;;2.40;0.93;;;26.70;71.10;;;;;;4988946;28;20189;-75
2022/07/26 14:22:56;;;;;;;3.60;1.23;;;26.60;70.10;;;;;;4994260;28;20279;-76
2022/07/26 14:25:23;;;;;;;2.03;1.00;;;27.40;71.20;;;;;;4994446;28;20180;-75
2022/07/26 14:27:53;;;;;;;5.80;1.10;;;27.60;70.40;;;;;;5003115;28;20423;-77
2022/07/26 14:30:20;;;;;;;1.97;1.20;;;28.00;70.70;;;;;;4998439;28;20470;-75
2022/07/26 14:32:46;;;;;;;2.93;0.90;;;27.70;69.90;;;;;;5001577;28;20442;-75
2022/07/26 14:35:12;;;;;;;2.27;1.20;;;27.10;72.50;;;;;;4992636;28;20444;-75
2022/07/26 14:37:38;;;;;;;1.67;1.00;;;26.90;71.60;;;;;;4974279;28;21157;-74
2022/07/26 14:40:06;;;;;;;1.90;1.20;;;26.50;73.10;;;;;;4982526;28;20438;-73
2022/07/26 14:42:32;;;;;;;3.93;1.10;;;26.00;74.70;;;;;;5002772;28;20809;-75
2022/07/26 14:44:57;;;;;;;4.60;1.07;;;25.50;76.80;;;;;;4997764;28;20475;-76
2022/07/26 14:47:23;;;;;;;1.60;0.90;;;25.10;77.20;;;;;;4993437;28;20701;-73
2022/07/26 14:49:48;;;;;;;1.40;0.80;;;25.20;76.40;;;;;;4993331;28;20625;-74
2022/07/26 14:52:15;;;;;;;5.30;1.07;;;25.20;75.80;;;;;;4993576;28;20204;-75
2022/07/26 14:54:40;;;;;;;5.33;1.50;;;25.20;76.40;;;;;;4993662;28;20176;-75
2022/07/26 14:57:06;;;;;;;7.80;1.37;;;25.30;76.60;;;;;;4993739;28;20412;-75
2022/07/26 14:59:32;;;;;;;13.97;1.40;;;25.40;76.90;;;;;;5001021;28;20707;-76
2022/07/26 15:01:57;;;;;;;5.60;1.00;;;25.60;76.20;;;;;;4992162;28;20258;-74
2022/07/26 15:04:23;;;;;;;1.57;0.93;;;25.20;75.70;;;;;;4993346;28;20177;-74
2022/07/26 15:06:48;;;;;;;2.30;0.90;;;25.10;76.60;;;;;;4992219;28;20227;-75
2022/07/26 15:09:13;;;;;;;3.30;1.20;;;25.40;74.70;;;;;;4988352;28;20247;-74
2022/07/26 15:11:39;;;;;;;1.53;0.80;;;25.20;75.90;;;;;;4979401;28;20206;-75
2022/07/26 15:14:04;;;;;;;4.80;1.03;;;25.00;76.40;;;;;;4974258;28;20329;-74
2022/07/26 15:16:31;;;;;;;1.67;0.70;;;24.90;76.30;;;;;;4990132;28;20182;-78
2022/07/26 15:18:57;;;;;;;1.97;1.00;;;25.40;76.10;;;;;;4974139;28;20181;-78
2022/07/26 15:21:22;;;;;;;3.30;1.00;;;25.30;74.80;;;;;;4980061;28;20436;-75
2022/07/26 15:23:48;;;;;;;4.60;1.00;;;25.20;74.90;;;;;;4983158;28;20177;-75
2022/07/26 15:26:13;;;;;;;3.63;1.10;;;25.10;76.30;;;;;;4978339;28;20689;-75
2022/07/26 15:28:39;;;;;;;10.33;1.60;;;24.90;76.70;;;;;;4982021;28;20553;-77
2022/07/26 15:31:04;;;;;;;2.93;1.30;;;24.80;77.70;;;;;;4989724;28;20267;-76
2022/07/26 15:33:31;;;;;;;1.40;1.00;;;24.50;79.00;;;;;;4989448;28;20193;-75
2022/07/26 15:35:57;;;;;;;2.30;1.40;;;24.20;79.60;;;;;;4992259;28;20585;-75
2022/07/26 15:38:22;;;;;;;6.93;1.20;;;24.20;80.50;;;;;;4990039;28;20416;-75
2022/07/26 15:40:48;;;;;;;6.57;1.00;;;24.10;81.00;;;;;;4998844;28;20292;-75
2022/07/26 15:43:21;;;;;;;3.90;1.47;;;23.80;81.50;;;;;;5012205;28;20223;-75
2022/07/26 15:45:47;;;;;;;2.23;1.30;;;23.50;82.30;;;;;;4995160;28;20177;-75
2022/07/26 15:48:13;;;;;;;3.67;1.50;;;23.20;83.90;;;;;;4992396;28;20427;-74
2022/07/26 15:50:38;;;;;;;4.07;1.40;;;23.20;84.50;;;;;;4991152;28;20833;-74
2022/07/26 15:53:06;;;;;;;3.37;1.63;;;23.30;84.90;;;;;;4992500;28;20204;-75
2022/07/26 15:55:31;;;;;;;2.00;1.10;;;23.30;84.00;;;;;;4991329;28;20181;-75
2022/07/26 15:57:57;;;;;;;1.50;1.23;;;23.20;85.20;;;;;;4985750;28;20497;-74
2022/07/26 16:00:22;;;;;;;5.37;1.23;;;23.20;85.10;;;;;;4976226;28;20186;-75
2022/07/26 16:02:48;;;;;;;1.87;1.30;;;23.00;86.10;;;;;;4987508;28;20204;-75
2022/07/26 16:05:13;;;;;;;9.27;1.53;;;22.90;86.40;;;;;;4987731;28;20193;-75
2022/07/26 16:07:40;;;;;;;11.70;1.50;;;22.80;86.20;;;;;;4984555;28;20194;-75
2022/07/26 16:10:06;;;;;;;7.13;1.53;;;22.60;85.70;;;;;;4993951;28;20251;-75
2022/07/26 16:12:32;;;;;;;7.37;1.20;;;22.40;86.50;;;;;;5012008;28;20427;-75
2022/07/26 16:14:58;;;;;;;3.87;1.20;;;22.30;87.40;;;;;;5011367;28;20451;-79
2022/07/26 16:17:24;;;;;;;5.83;1.40;;;22.10;88.20;;;;;;4995897;28;20165;-78
2022/07/26 16:19:50;;;;;;;12.13;3.33;;;22.00;89.60;;;;;;4992470;28;20182;-78
2022/07/26 16:33:24;;;;;;;5.33;1.90;;;21.80;92.80;;;;;;4972891;28;20831;-78
2022/07/26 16:35:49;;;;;;;8.30;1.63;;;21.80;93.30;;;;;;4952538;28;20430;-76
2022/07/26 16:38:14;;;;;;;4.80;1.97;;;21.80;93.40;;;;;;4953261;29;20417;-75
2022/07/26 16:40:40;;;;;;;4.60;1.70;;;21.90;94.40;;;;;;4975026;28;20669;-75
2022/07/26 16:43:05;;;;;;;3.20;1.90;;;22.00;93.70;;;;;;4991952;28;20201;-76
2022/07/26 16:45:31;;;;;;;9.67;1.67;;;21.90;94.30;;;;;;4992046;28;20252;-74
2022/07/26 16:47:56;;;;;;;2.90;1.70;;;21.80;95.30;;;;;;4991408;28;20638;-75
2022/07/26 16:50:22;;;;;;;7.50;1.90;;;21.60;95.90;;;;;;4991863;28;20202;-76
2022/07/26 16:52:47;;;;;;;13.37;2.20;;;21.50;96.00;;;;;;4992409;28;20316;-74
2022/07/26 16:55:14;;;;;;;9.40;2.53;;;21.40;96.30;;;;;;4995219;28;20181;-74
2022/07/26 16:57:40;;;;;;;4.63;1.83;;;21.30;96.30;;;;;;4995348;28;20173;-77
2022/07/26 17:00:09;;;;;;;5.67;1.90;;;21.30;96.30;;;;;;4995707;28;20534;-74
2022/07/26 17:02:35;;;;;;;3.47;2.00;;;21.40;96.30;;;;;;4995583;28;20692;-74
2022/07/26 17:05:01;;;;;;;3.20;1.97;;;21.40;96.30;;;;;;4995593;28;20943;-75
2022/07/26 17:07:27;;;;;;;3.83;1.70;;;21.50;96.30;;;;;;4994096;28;20479;-75
2022/07/26 17:09:54;;;;;;;6.73;2.10;;;21.50;96.20;;;;;;4985766;28;20454;-75
2022/07/26 17:12:19;;;;;;;4.37;1.80;;;21.40;96.30;;;;;;4966184;28;20206;-74
2022/07/26 17:14:45;;;;;;;5.53;1.87;;;21.40;96.30;;;;;;4975376;28;20425;-74
2022/07/26 17:17:10;;;;;;;10.53;1.93;;;21.30;96.30;;;;;;4975373;28;20602;-74